Here is the Quick Look data you requested

The Data originates at the National Weather Service, and is made available here by the UAlbany Department of Atmospheric and Environmental Sciences

Surface Observations

PAAQ 101453Z AUTO 00000KT 10SM OVC047 12/11 A2973 RMK AO2 SLP070 T01170106
 55001 TSNO $=
PABE 101453Z 32012KT 1/4SM FG VV002 09/09 A2999 RMK AO2 SLP157 T00890089 54000
 RVRNO=
PABI 101453Z 28007KT 10SM -RA OVC007 11/09 A2980 RMK AO2 CIG 005V009 SLP096
 P0001 60004 T01060094 53002=
PABL 101456Z AUTO 30011KT 10SM OVC004 09/08 A2994 RMK AO2 SLP139 T00890078
 55002=
PABR 101453Z 06006KT 6SM BR OVC004 00/M01 A3011 RMK AO2 SLP198 I1001 I3002
 T00001006 58005=
PABT 101453Z 00000KT 10SM FEW040 FEW060 SCT180 10/06 A2993 RMK AO2 SLP140
 T01000056 53008=
PABV 101456Z AUTO 03003KT 10SM CLR 13/11 A2975 RMK AO2 SLP079 T01280111 55001=
PACD 101453Z AUTO 32007KT -RA OVC008 08/07 A3004 RMK AO2 RAB45 CIG 005V011
 SLP173 P0000 60000 T00830072 56010 TSNO $=
PACV 101453Z 00000KT 10SM BKN018 BKN028 OVC041 11/09 A2976 RMK AO2 SLP079
 T01110089 55000=
PACZ 101455Z 03010KT 020V120 10SM OVC005 08/08 A3002 RMK AO2A SLP169 5//// BWC
 LOW=
PADE 101453Z AUTO 26009KT 10SM CLR 08/07 A2992 RMK AO2 SLP131 T00830072 58004
 TSNO $=
PADK 101456Z AUTO 03011KT 10SM -RA OVC008 10/10 A2985 RMK AO2 CIG 007V012
 SLP107 P0000 60000 T01000100 56018=
PADL 101456Z AUTO 00000KT 10SM OVC060 12/09 A2991 RMK AO2 SLP129 T01170094
 56003=
PADQ 101453Z 00000KT 10SM CLR 12/09 A2979 RMK SLP088 T01170094 55000 $ VIA
 AUTODIAL=
PADU 101456Z 00000KT 4SM BR SCT001 OVC002 07/07 A3007 RMK AO2 SLP187 VIS NW 2
 T00720067 56007=
PAEC 101453Z 00000KT 15SM BKN030 OVC050 11/10 A2971 RMK N0SPECI FIRST =
PAED 101456Z AUTO 00000KT 10SM CLR 14/11 A2973 RMK AO2 SLP063 T01390112 56002 $=
PAEG 101453Z AUTO 00000KT 3SM -RA BR OVC055 11/11 A2977 RMK AO2 SLP083 P0013
 60023 T01060106 51007 TSNO=
PAEH 101455Z 34006KT 9SM FEW002 BKN004 BKN025 10/09 A2999 RMK AO2A SLP159 5////
 BWC LOW=
PAEI 101456Z AUTO 33007KT 10SM SCT002 SCT160 11/11 A2979 RMK AO2 SLP092 60000
 T01140108 53000 $=
PAEL 101445Z 09010KT 10SM SCT012 OVC022 12/10 A2974 RMK SPB E06012KT NOSPECI=
PAEN 101453Z 00000KT 10SM FEW100 09/08 A2974 RMK AO2 SLP073 T00940083 55001=
PAFA 101453Z 36007KT 10SM SCT060 BKN080 BKN200 13/08 A2980 RMK AO2 SLP095
 T01280083 53004 $=
PAFB 101458Z AUTO 00000KT 10SM CLR 12/10 A2981 RMK AO2 SLP097 T01230101 53005=
PAFM 101456Z AUTO RMK AO2 SLPNO 6//// PWINO FZRANO $=
PAGA 101456Z AUTO 26003KT 10SM CLR 12/10 A2988 RMK AO2 SLP118 T01170100 53001=
PAGK 101453Z AUTO 15003KT 10SM FEW100 11/07 A2973 RMK AO2 SLP064 T01060067
 51006 TSNO $=
PAGL 101456Z AUTO 34005KT 10SM CLR 09/07 A2994 RMK AO2 SLP134 T00940072 58006=
PAGM 101456Z AUTO 20007KT 1/4SM FG OVC002 06/ A3008 RMK AO2 SLP191 T0061 57009=
PAGS 101456Z AUTO 00000KT 10SM -RA SCT004 BKN010 OVC041 11/11 A2979 RMK AO2 CIG
 007V012 SLP088 P0001 60004 T01110106 53005=
PAGY 101403Z AUTO 00000KT 4SM BR FEW003 SCT033 OVC090 11/11 A2979 RMK T01110111
 TSNO VIA AUTODIAL=
PAHN 101454Z AUTO 00000KT 10SM FEW012 SCT046 OVC070 12/11 A2979 RMK AO2
 RAB03E53 SLP091 P0000 60000 T01220111 50001 TSNO=
PAHO 101453Z 05003KT 10SM CLR 12/11 A2977 RMK AO2 SLP082 T01220106 53003 $=
PAHP 101456Z AUTO 31011KT 10SM BKN007 OVC019 09/08 A3005 RMK AO2 SLP175
 T00940078 55007 $=
PAII 101456Z AUTO 26003KT 10SM OVC055 11/11 A2992 RMK AO2 SLP129 T01110106
 53000=
PAIL 101453Z AUTO 36004KT 10SM BKN070 13/11 A2981 RMK AO2 SLP096 T01330111
 56002 TSNO=
PAIM 101455Z AUTO VRB01KT 10SM CLR 10/08 A2988 RMK AO2 SLP113 T01020075 52002=
PAIN 101456Z AUTO 00000KT 10SM -RA OVC042 11/09 A2979 RMK AO2 RAB07 SLP104
 P0000 60009 T01060094 55001=
PAJC 101457Z AUTO 25014G22KT 10SM CLR 10/06 A2997 RMK AO2 SLP148 T01000061
 58005=
PAJN 101453Z 10005KT 10SM -RA FEW009 BKN080 OVC100 12/11 A2978 RMK AO2 SLP084
 P0000 60001 T01220106 55001=
PAKK 101456Z AUTO 00000KT 10SM CLR 09/08 RMK AO2 SLPNO T00890083 $=
PAKN 101454Z AUTO 31003KT 10SM OVC060 12/10 A2985 RMK AO2 SLP109 T01220100
 56001 TSNO=
PAKT 101453Z 14012KT 5SM RA BR FEW010 SCT016 OVC022 12/12 A2982 RMK SLP099
 HARBOR WIND 12020KT P0011 60035 T01220122 58004 VIA AUTODIAL=
PAKU 101445Z 07005KT 2SM R06/P6000FT BR SCT002 BKN006 BKN120 01/01 A3009=
PAKW 101453Z AUTO 17003KT 10SM SCT070 OVC100 12/10 A2975 RMK SLP073 60004
 T01220100 55001 TSNO $ VIA AUTODIAL=
PALH 101453Z 00000KT 10SM CLR 15/12 A2974 RMK AO2 SLP071 T01500117 55002=
PALJ 101455Z 00000KT 30SM SCT040 BKN060 13/10 A2979 RMK FIRST EST PASS OPN
 NOSPECI=
PALU 101455Z 07013KT 8SM OVC003 07/07 A3006 RMK AO2A SLP177 5//// BWC MOD=
PAMC 101453Z AUTO 28005KT CLR 14/11 A2983 RMK AO2 SLP104 T01440111 58004 TSNO $=
PAMD 101451Z AUTO 06008KT 10SM OVC090 13/12 A2975 RMK AO2 SLP063 T01280117
 53002=
PAMH 101456Z AUTO 00000KT 7SM CLR 11/10 A2982 RMK AO2 SLP094 T01060100 51002=
PAMM 101456Z AUTO 17007KT 130V220 10SM -RA BKN022 OVC070 13/11 A2983 RMK AO2
 SLPNO P0012 6//// T01280111 58003 $=
PAMR 101453Z 00000KT 10SM FEW090 SCT110 BKN200 14/10 A2973 RMK AO2 SLP068
 T01440100 55002=
PAMY 101456Z AUTO 34009KT 10SM OVC003 07/07 A3007 RMK AO2 SLP183 60000
 T00720072 58004=
PANC 101453Z 16003KT 10SM SCT080 BKN110 14/12 A2973 RMK AO2 SLP068 T01440117
 55001=
PANI 101456Z AUTO 00000KT 10SM CLR 07/07 A2994 RMK AO2 SLP140 T00720072 51001=
PANN 101453Z AUTO 00000KT 10SM FEW085 OVC110 14/12 A2979 RMK AO2 SLP091 60004
 T01390122 53001 TSNO $=
PANV 101456Z AUTO 23003KT 10SM CLR 09/07 A2991 RMK AO2 SLP191 T00890072 56001
 TSNO=
PAOH 101456Z AUTO 06003KT 10SM -RA 12/11 A2977 RMK AO2 SLP082 P0001 6////
 T01170106 53004=
PAOM 101453Z AUTO 33011KT 10SM CLR 11/06 A2994 RMK AO2 SLP139 T01110056 58006
 TSNO=
PAOR 101453Z AUTO 00000KT 10SM FEW085 SCT170 SCT240 12/08 A2972 RMK AO2 SLP063
 T01170078 53001 TSNO=
PAOT 101453Z 25008KT 1/4SM R09/1400V5500FT FG VV002 08/08 A2990 RMK AO2 SLP125
 T00830083 58001 $=
PAPB 101453Z AUTO 36003KT 5SM BR OVC006 07/06 A3009 RMK AO2 SLP178 T00670061
 56009 PWINO TSNO $=
PAPG 101456Z 11008KT 10SM -RA BKN019 OVC028 12/10 A2982 RMK AO2 SLP100 P0006
 60027 T01220100 52002=
PAPH 101456Z AUTO 26011KT 2SM -RA BR OVC004 08/08 A2998 RMK AO2 SLP151 P0000
 60000 T00830078 56018=
PAQT 101415Z AUTO 08004KT 1/2SM FG OVC002 01/01 A3010 RMK T00060006 TSNO VIA
 AUTODIAL=
PASA 101456Z AUTO 25009KT 10SM CLR 08/07 A3007 RMK AO2 SLP182 6//// T00830072
 56006 PNO $=
PASC 101453Z 06006KT 3SM BR BKN003 BKN007 OVC250 02/00 A3007 RMK AO2 SLP184
 T00220000 55002=
PASI 101453Z 00000KT 10SM -RA FEW006 BKN035 OVC055 12/11 A2972 RMK AO2 SLP063
 P0000 60003 T01170106 50002=
PASK 101456Z AUTO 25010KT 10SM OVC005 11/11 A2992 RMK AO2 SLP127 T01110106
 54000=
PASL 101456Z AUTO VRB03KT 10SM FEW060 OVC080 12/09 A2992 RMK AO2 SLP122
 T01220089 53003=
PASM 101456Z AUTO 33008KT 1/4SM -RA FG OVC002 08/07 A3002 RMK AO2 RAB52 SLP173
 P0000 60000 T00780072 58005=
PASN 101422Z AUTO 02004KT 2 1/2SM BR OVC003 09/07 A3010 RMK T00890067 TSNO $
 VIA AUTODIAL=
PASO 101453Z AUTO 20003KT 10SM FEW100 11/09 A2976 RMK AO2 SLP079 T01060094
 51001 TSNO $=
PASX 101456Z AUTO 00000KT 10SM BKN085 10/09 A2977 RMK AO2 SLP089 T01000089
 55000=
PASY 101455Z 07015KT 7SM BR OVC001 08/08 A2983 RMK AO2A RAE51 SLP103 SLP ESTMD
 60004 T00780075 57015 RVRNO FZRANO PNO $=
PATA 101452Z 04005KT 10SM CLR 12/09 A2985 RMK AO2 RAE08 SLP110 P0000 60001
 T01220089 53006=
PATC 101455Z 05008KT 020V080 10SM CLR 09/06 A3000 RMK AO2A SLP161 5//// BWC LOW=
PATG 101456Z AUTO 35003KT 10SM OVC070 11/09 A2994 RMK AO2 SLP232 T01060089
 58003=
PATK 101453Z AUTO 00000KT 5SM -RA BR SCT065 OVC080 13/12 A2975 RMK AO2 RAB48
 SLP075 P0000 60000 T01280117 53004 TSNO=
PATL 101455Z AUTO VRB05KT 10SM FEW080 14/10 A2987 RMK AO2 SLP110 T01360096
 57006=
PATO 101453Z AUTO 00000KT 10SM FEW044 SCT110 11/08 A2975 RMK SLP076 T01060083
 55001 TSNO VIA AUTODIAL=
PAUN 101456Z AUTO 22012KT 10SM OVC007 12/11 A2994 RMK AO2 CIG 006V010 SLP143
 6//// T01170106 57003 PNO $=
PAVD 101456Z 07003KT 10SM FEW015 SCT031 OVC044 11/08 A2982 RMK AO2 SLP097
 T01110078 55001=
PAVL 101453Z AUTO 03011KT 8SM CLR 10/06 A2992 RMK AO2 SLP131 T01000061 58000
 TSNO=
PAWD 101453Z AUTO 35003KT 10SM OVC060 11/09 A2976 RMK AO2 SLP076 T01060094
 56002 TSNO=
PAWG 101456Z 09010KT 10SM -RA FEW035 BKN055 OVC070 12/11 A2982 RMK AO2 SLP099
 P0001 60004 T01220111 50000=
PAWI 101443Z AUTO 05008KT 1 3/4SM BR OVC003 03/01 A3009 RMK T00280011 TSNO PNO
 VIA AUTODIAL=
PAWN 101456Z AUTO 36005KT 10SM CLR 11/06 A2993 RMK AO2 SLP145 T01060056 56003=
PAWS 101456Z AUTO 10004KT 10SM FEW095 13/12 A2976 RMK AO2 SLP079 T01280117
 55001=
PAYA 101453Z AUTO 34004KT 10SM OVC044 13/12 A2974 RMK AO2 SLP071 60000
 T01280117 55002 TSNO=
PAZK 101456Z AUTO 21004KT 10SM FEW046 OVC070 09/07 A2975 RMK AO2 SLP087 60001
 T00890072 55001=
PPIZ 101456Z AUTO 03011KT 3/4SM -RA BR OVC002 05/04 A3008 RMK AO2 SLP188 P0000
 60000 T00500044 58002=